sensor_id;sensor_type;location;lat;lon;timestamp;P1;durP1;ratioP1;P2;durP2;ratioP2
57615;SDS011;43816;52.054;-9.494;2023-07-16T00:00:01;5.20;;;4.90;;
57615;SDS011;43816;52.054;-9.494;2023-07-16T00:00:12;5.30;;;5.00;;
57615;SDS011;43816;52.054;-9.494;2023-07-16T00:00:22;5.15;;;4.85;;
57615;SDS011;43816;52.054;-9.494;2023-07-16T00:00:33;5.20;;;4.90;;
57615;SDS011;43816;52.054;-9.494;2023-07-16T00:00:43;5.20;;;4.90;;
57615;SDS011;43816;52.054;-9.494;2023-07-16T00:00:53;5.40;;;5.00;;
57615;SDS011;43816;52.054;-9.494;2023-07-16T00:01:03;5.40;;;5.00;;
57615;SDS011;43816;52.054;-9.494;2023-07-16T00:01:14;5.30;;;5.00;;
57615;SDS011;43816;52.054;-9.494;2023-07-16T00:01:24;5.50;;;5.20;;
57615;SDS011;43816;52.054;-9.494;2023-07-16T00:01:34;5.37;;;5.07;;
57615;SDS011;43816;52.054;-9.494;2023-07-16T00:01:44;5.27;;;4.97;;
57615;SDS011;43816;52.054;-9.494;2023-07-16T00:01:55;4.90;;;4.60;;
57615;SDS011;43816;52.054;-9.494;2023-07-16T00:02:06;5.10;;;4.80;;
57615;SDS011;43816;52.054;-9.494;2023-07-16T00:02:16;5.20;;;4.90;;
57615;SDS011;43816;52.054;-9.494;2023-07-16T00:02:26;5.30;;;4.90;;
57615;SDS011;43816;52.054;-9.494;2023-07-16T00:02:37;4.90;;;4.60;;
57615;SDS011;43816;52.054;-9.494;2023-07-16T00:02:48;4.98;;;4.68;;
57615;SDS011;43816;52.054;-9.494;2023-07-16T00:02:58;5.17;;;4.80;;
57615;SDS011;43816;52.054;-9.494;2023-07-16T00:03:08;5.10;;;4.80;;
57615;SDS011;43816;52.054;-9.494;2023-07-16T00:03:19;5.30;;;4.97;;
57615;SDS011;43816;52.054;-9.494;2023-07-16T00:03:29;5.55;;;5.25;;
57615;SDS011;43816;52.054;-9.494;2023-07-16T00:03:39;5.67;;;5.37;;
57615;SDS011;43816;52.054;-9.494;2023-07-16T00:03:49;5.53;;;5.23;;
57615;SDS011;43816;52.054;-9.494;2023-07-16T00:04:00;5.15;;;4.95;;
57615;SDS011;43816;52.054;-9.494;2023-07-16T00:04:10;5.03;;;4.77;;
57615;SDS011;43816;52.054;-9.494;2023-07-16T00:04:20;4.93;;;4.63;;
57615;SDS011;43816;52.054;-9.494;2023-07-16T00:04:31;5.10;;;4.80;;
57615;SDS011;43816;52.054;-9.494;2023-07-16T00:04:42;5.20;;;4.90;;
57615;SDS011;43816;52.054;-9.494;2023-07-16T00:04:52;5.40;;;5.10;;
57615;SDS011;43816;52.054;-9.494;2023-07-16T00:05:02;5.30;;;5.00;;
57615;SDS011;43816;52.054;-9.494;2023-07-16T00:05:13;5.47;;;5.18;;
57615;SDS011;43816;52.054;-9.494;2023-07-16T00:05:23;5.40;;;5.10;;
57615;SDS011;43816;52.054;-9.494;2023-07-16T00:05:34;5.40;;;5.10;;
57615;SDS011;43816;52.054;-9.494;2023-07-16T00:05:48;5.38;;;5.07;;
57615;SDS011;43816;52.054;-9.494;2023-07-16T00:06:00;5.30;;;5.00;;
57615;SDS011;43816;52.054;-9.494;2023-07-16T00:06:10;5.30;;;5.00;;
57615;SDS011;43816;52.054;-9.494;2023-07-16T00:06:20;5.20;;;4.90;;
57615;SDS011;43816;52.054;-9.494;2023-07-16T00:06:30;5.07;;;4.78;;
57615;SDS011;43816;52.054;-9.494;2023-07-16T00:06:41;5.20;;;4.90;;
57615;SDS011;43816;52.054;-9.494;2023-07-16T00:06:51;5.20;;;4.90;;
57615;SDS011;43816;52.054;-9.494;2023-07-16T00:07:01;5.20;;;4.90;;
57615;SDS011;43816;52.054;-9.494;2023-07-16T00:07:12;5.10;;;4.80;;
57615;SDS011;43816;52.054;-9.494;2023-07-16T00:07:22;5.00;;;4.70;;
57615;SDS011;43816;52.054;-9.494;2023-07-16T00:07:32;5.18;;;4.88;;
57615;SDS011;43816;52.054;-9.494;2023-07-16T00:07:43;5.20;;;4.90;;
57615;SDS011;43816;52.054;-9.494;2023-07-16T00:07:53;5.13;;;4.93;;
57615;SDS011;43816;52.054;-9.494;2023-07-16T00:08:03;4.93;;;4.72;;
57615;SDS011;43816;52.054;-9.494;2023-07-16T00:08:14;5.00;;;4.70;;
57615;SDS011;43816;52.054;-9.494;2023-07-16T00:08:24;5.10;;;4.80;;
57615;SDS011;43816;52.054;-9.494;2023-07-16T00:08:34;5.10;;;4.80;;
57615;SDS011;43816;52.054;-9.494;2023-07-16T00:08:44;4.93;;;4.73;;
57615;SDS011;43816;52.054;-9.494;2023-07-16T00:08:55;4.77;;;4.57;;
57615;SDS011;43816;52.054;-9.494;2023-07-16T00:09:05;4.82;;;4.63;;
57615;SDS011;43816;52.054;-9.494;2023-07-16T00:09:15;5.30;;;5.00;;
57615;SDS011;43816;52.054;-9.494;2023-07-16T00:09:26;5.30;;;5.00;;
57615;SDS011;43816;52.054;-9.494;2023-07-16T00:09:36;5.30;;;5.00;;
57615;SDS011;43816;52.054;-9.494;2023-07-16T00:09:46;5.10;;;4.80;;
57615;SDS011;43816;52.054;-9.494;2023-07-16T00:09:57;5.13;;;4.83;;
57615;SDS011;43816;52.054;-9.494;2023-07-16T00:10:07;5.00;;;4.70;;
57615;SDS011;43816;52.054;-9.494;2023-07-16T00:10:18;5.10;;;4.80;;
57615;SDS011;43816;52.054;-9.494;2023-07-16T00:10:28;5.10;;;4.80;;
57615;SDS011;43816;52.054;-9.494;2023-07-16T00:10:39;5.03;;;4.73;;
57615;SDS011;43816;52.054;-9.494;2023-07-16T00:10:49;5.00;;;4.70;;
57615;SDS011;43816;52.054;-9.494;2023-07-16T00:10:59;5.20;;;4.80;;
57615;SDS011;43816;52.054;-9.494;2023-07-16T00:11:09;5.30;;;4.90;;
57615;SDS011;43816;52.054;-9.494;2023-07-16T00:11:20;5.30;;;4.90;;
57615;SDS011;43816;52.054;-9.494;2023-07-16T00:11:30;5.20;;;4.90;;
57615;SDS011;43816;52.054;-9.494;2023-07-16T00:11:40;5.30;;;4.90;;
57615;SDS011;43816;52.054;-9.494;2023-07-16T00:11:51;5.23;;;4.93;;
57615;SDS011;43816;52.054;-9.494;2023-07-16T00:12:01;5.23;;;4.93;;
57615;SDS011;43816;52.054;-9.494;2023-07-16T00:12:12;5.30;;;5.00;;
57615;SDS011;43816;52.054;-9.494;2023-07-16T00:12:22;5.40;;;5.10;;
57615;SDS011;43816;52.054;-9.494;2023-07-16T00:12:32;5.47;;;5.17;;
57615;SDS011;43816;52.054;-9.494;2023-07-16T00:12:43;5.50;;;5.20;;
57615;SDS011;43816;52.054;-9.494;2023-07-16T00:12:53;5.43;;;5.13;;
57615;SDS011;43816;52.054;-9.494;2023-07-16T00:13:03;5.50;;;5.20;;
57615;SDS011;43816;52.054;-9.494;2023-07-16T00:13:14;5.40;;;5.10;;
57615;SDS011;43816;52.054;-9.494;2023-07-16T00:13:25;5.18;;;4.88;;
57615;SDS011;43816;52.054;-9.494;2023-07-16T00:13:35;5.10;;;4.80;;
57615;SDS011;43816;52.054;-9.494;2023-07-16T00:13:46;5.23;;;4.93;;
57615;SDS011;43816;52.054;-9.494;2023-07-16T00:13:56;5.25;;;4.95;;
57615;SDS011;43816;52.054;-9.494;2023-07-16T00:14:07;5.47;;;5.17;;
57615;SDS011;43816;52.054;-9.494;2023-07-16T00:14:17;5.63;;;5.23;;
57615;SDS011;43816;52.054;-9.494;2023-07-16T00:14:28;5.80;;;5.43;;
57615;SDS011;43816;52.054;-9.494;2023-07-16T00:14:38;5.33;;;5.03;;
57615;SDS011;43816;52.054;-9.494;2023-07-16T00:14:48;5.23;;;4.93;;
57615;SDS011;43816;52.054;-9.494;2023-07-16T00:14:59;5.10;;;4.80;;
57615;SDS011;43816;52.054;-9.494;2023-07-16T00:15:09;5.30;;;5.00;;
57615;SDS011;43816;52.054;-9.494;2023-07-16T00:15:20;5.38;;;5.07;;
57615;SDS011;43816;52.054;-9.494;2023-07-16T00:15:30;5.50;;;5.20;;
57615;SDS011;43816;52.054;-9.494;2023-07-16T00:15:40;5.47;;;5.18;;
57615;SDS011;43816;52.054;-9.494;2023-07-16T00:15:51;5.67;;;5.37;;
57615;SDS011;43816;52.054;-9.494;2023-07-16T00:16:01;5.50;;;5.20;;
57615;SDS011;43816;52.054;-9.494;2023-07-16T00:16:12;5.40;;;5.10;;
57615;SDS011;43816;52.054;-9.494;2023-07-16T00:16:22;5.00;;;4.80;;
57615;SDS011;43816;52.054;-9.494;2023-07-16T00:16:33;5.20;;;4.90;;
57615;SDS011;43816;52.054;-9.494;2023-07-16T00:16:43;5.37;;;5.07;;
57615;SDS011;43816;52.054;-9.494;2023-07-16T00:16:53;5.32;;;5.00;;
57615;SDS011;43816;52.054;-9.494;2023-07-16T00:17:04;5.13;;;4.83;;
57615;SDS011;43816;52.054;-9.494;2023-07-16T00:17:14;5.13;;;4.83;;
57615;SDS011;43816;52.054;-9.494;2023-07-16T00:17:24;5.30;;;5.00;;
57615;SDS011;43816;52.054;-9.494;2023-07-16T00:17:34;5.30;;;5.00;;
57615;SDS011;43816;52.054;-9.494;2023-07-16T00:17:45;5.27;;;4.97;;
57615;SDS011;43816;52.054;-9.494;2023-07-16T00:17:55;5.07;;;4.78;;
57615;SDS011;43816;52.054;-9.494;2023-07-16T00:18:05;5.00;;;4.70;;
57615;SDS011;43816;52.054;-9.494;2023-07-16T00:18:16;5.00;;;4.70;;
57615;SDS011;43816;52.054;-9.494;2023-07-16T00:18:26;5.10;;;4.80;;
57615;SDS011;43816;52.054;-9.494;2023-07-16T00:18:36;5.30;;;5.00;;
57615;SDS011;43816;52.054;-9.494;2023-07-16T00:18:47;5.23;;;4.93;;
57615;SDS011;43816;52.054;-9.494;2023-07-16T00:18:57;5.22;;;4.93;;
57615;SDS011;43816;52.054;-9.494;2023-07-16T00:19:09;5.17;;;4.87;;
57615;SDS011;43816;52.054;-9.494;2023-07-16T00:19:20;4.95;;;4.65;;
57615;SDS011;43816;52.054;-9.494;2023-07-16T00:19:30;5.10;;;4.70;;
57615;SDS011;43816;52.054;-9.494;2023-07-16T00:19:40;5.00;;;4.70;;
57615;SDS011;43816;52.054;-9.494;2023-07-16T00:19:51;5.10;;;4.80;;
57615;SDS011;43816;52.054;-9.494;2023-07-16T00:20:01;5.17;;;4.87;;
57615;SDS011;43816;52.054;-9.494;2023-07-16T00:20:12;5.28;;;4.97;;
57615;SDS011;43816;52.054;-9.494;2023-07-16T00:20:22;5.30;;;5.00;;
57615;SDS011;43816;52.054;-9.494;2023-07-16T00:20:32;5.23;;;4.93;;
57615;SDS011;43816;52.054;-9.494;2023-07-16T00:20:43;5.40;;;5.10;;
57615;SDS011;43816;52.054;-9.494;2023-07-16T00:20:53;5.53;;;5.13;;
57615;SDS011;43816;52.054;-9.494;2023-07-16T00:21:03;5.47;;;5.17;;
57615;SDS011;43816;52.054;-9.494;2023-07-16T00:21:14;5.13;;;4.82;;
57615;SDS011;43816;52.054;-9.494;2023-07-16T00:21:24;5.00;;;4.70;;
57615;SDS011;43816;52.054;-9.494;2023-07-16T00:21:34;5.05;;;4.75;;
57615;SDS011;43816;52.054;-9.494;2023-07-16T00:21:45;5.03;;;4.73;;
57615;SDS011;43816;52.054;-9.494;2023-07-16T00:21:55;5.03;;;4.73;;
57615;SDS011;43816;52.054;-9.494;2023-07-16T00:22:05;4.90;;;4.60;;
57615;SDS011;43816;52.054;-9.494;2023-07-16T00:22:16;4.90;;;4.60;;
57615;SDS011;43816;52.054;-9.494;2023-07-16T00:22:26;4.93;;;4.63;;
57615;SDS011;43816;52.054;-9.494;2023-07-16T00:22:36;5.10;;;4.80;;
57615;SDS011;43816;52.054;-9.494;2023-07-16T00:22:46;5.32;;;5.03;;
57615;SDS011;43816;52.054;-9.494;2023-07-16T00:22:57;5.43;;;5.13;;
57615;SDS011;43816;52.054;-9.494;2023-07-16T00:23:07;5.30;;;5.00;;
57615;SDS011;43816;52.054;-9.494;2023-07-16T00:23:17;4.97;;;4.68;;
57615;SDS011;43816;52.054;-9.494;2023-07-16T00:23:28;4.90;;;4.60;;
57615;SDS011;43816;52.054;-9.494;2023-07-16T00:23:38;5.20;;;4.90;;
57615;SDS011;43816;52.054;-9.494;2023-07-16T00:23:48;5.20;;;4.90;;
57615;SDS011;43816;52.054;-9.494;2023-07-16T00:23:58;5.20;;;4.90;;
57615;SDS011;43816;52.054;-9.494;2023-07-16T00:24:09;5.40;;;5.07;;
57615;SDS011;43816;52.054;-9.494;2023-07-16T00:24:19;5.67;;;5.33;;
57615;SDS011;43816;52.054;-9.494;2023-07-16T00:24:29;5.63;;;5.27;;
57615;SDS011;43816;52.054;-9.494;2023-07-16T00:24:40;5.27;;;4.93;;
57615;SDS011;43816;52.054;-9.494;2023-07-16T00:24:50;5.20;;;4.90;;
57615;SDS011;43816;52.054;-9.494;2023-07-16T00:25:00;5.00;;;4.70;;
57615;SDS011;43816;52.054;-9.494;2023-07-16T00:25:11;4.90;;;4.60;;
57615;SDS011;43816;52.054;-9.494;2023-07-16T00:25:21;5.00;;;4.70;;
57615;SDS011;43816;52.054;-9.494;2023-07-16T00:25:31;5.20;;;4.90;;
57615;SDS011;43816;52.054;-9.494;2023-07-16T00:25:42;5.23;;;4.93;;
57615;SDS011;43816;52.054;-9.494;2023-07-16T00:25:52;5.23;;;4.93;;
57615;SDS011;43816;52.054;-9.494;2023-07-16T00:26:02;5.35;;;5.05;;
57615;SDS011;43816;52.054;-9.494;2023-07-16T00:26:13;5.50;;;5.20;;
57615;SDS011;43816;52.054;-9.494;2023-07-16T00:26:23;5.25;;;4.95;;
57615;SDS011;43816;52.054;-9.494;2023-07-16T00:26:34;5.00;;;4.70;;
57615;SDS011;43816;52.054;-9.494;2023-07-16T00:26:44;4.90;;;4.60;;
57615;SDS011;43816;52.054;-9.494;2023-07-16T00:26:54;5.10;;;4.80;;
57615;SDS011;43816;52.054;-9.494;2023-07-16T00:27:04;5.10;;;4.80;;
57615;SDS011;43816;52.054;-9.494;2023-07-16T00:27:15;5.17;;;4.87;;
57615;SDS011;43816;52.054;-9.494;2023-07-16T00:27:25;5.10;;;4.80;;
57615;SDS011;43816;52.054;-9.494;2023-07-16T00:27:35;5.10;;;4.80;;
57615;SDS011;43816;52.054;-9.494;2023-07-16T00:27:46;5.07;;;4.78;;
57615;SDS011;43816;52.054;-9.494;2023-07-16T00:27:56;4.73;;;4.43;;
57615;SDS011;43816;52.054;-9.494;2023-07-16T00:28:07;4.88;;;4.60;;
57615;SDS011;43816;52.054;-9.494;2023-07-16T00:28:17;4.90;;;4.70;;
57615;SDS011;43816;52.054;-9.494;2023-07-16T00:28:27;5.20;;;4.90;;
57615;SDS011;43816;52.054;-9.494;2023-07-16T00:28:39;5.38;;;5.00;;
57615;SDS011;43816;52.054;-9.494;2023-07-16T00:28:49;5.47;;;5.10;;
57615;SDS011;43816;52.054;-9.494;2023-07-16T00:29:00;5.30;;;5.00;;
57615;SDS011;43816;52.054;-9.494;2023-07-16T00:29:10;5.20;;;4.90;;
57615;SDS011;43816;52.054;-9.494;2023-07-16T00:29:20;5.00;;;4.70;;
57615;SDS011;43816;52.054;-9.494;2023-07-16T00:29:30;5.00;;;4.70;;
57615;SDS011;43816;52.054;-9.494;2023-07-16T00:29:41;5.10;;;4.80;;
57615;SDS011;43816;52.054;-9.494;2023-07-16T00:29:51;5.13;;;4.83;;
57615;SDS011;43816;52.054;-9.494;2023-07-16T00:30:01;5.27;;;4.97;;
57615;SDS011;43816;52.054;-9.494;2023-07-16T00:30:12;5.07;;;4.78;;
57615;SDS011;43816;52.054;-9.494;2023-07-16T00:30:23;5.28;;;4.97;;
57615;SDS011;43816;52.054;-9.494;2023-07-16T00:30:33;5.10;;;4.80;;
57615;SDS011;43816;52.054;-9.494;2023-07-16T00:30:43;5.13;;;4.83;;
57615;SDS011;43816;52.054;-9.494;2023-07-16T00:30:53;5.10;;;4.80;;
57615;SDS011;43816;52.054;-9.494;2023-07-16T00:31:04;5.10;;;4.80;;
57615;SDS011;43816;52.054;-9.494;2023-07-16T00:31:14;5.10;;;4.80;;
57615;SDS011;43816;52.054;-9.494;2023-07-16T00:31:24;5.00;;;4.70;;
57615;SDS011;43816;52.054;-9.494;2023-07-16T00:31:35;5.03;;;4.73;;
57615;SDS011;43816;52.054;-9.494;2023-07-16T00:31:45;5.17;;;4.87;;
57615;SDS011;43816;52.054;-9.494;2023-07-16T00:31:55;5.18;;;4.88;;
57615;SDS011;43816;52.054;-9.494;2023-07-16T00:32:06;5.13;;;4.93;;
57615;SDS011;43816;52.054;-9.494;2023-07-16T00:32:16;4.95;;;4.72;;
57615;SDS011;43816;52.054;-9.494;2023-07-16T00:32:27;5.20;;;4.90;;
57615;SDS011;43816;52.054;-9.494;2023-07-16T00:32:37;5.00;;;4.70;;
57615;SDS011;43816;52.054;-9.494;2023-07-16T00:32:48;4.97;;;4.68;;
57615;SDS011;43816;52.054;-9.494;2023-07-16T00:32:58;4.80;;;4.50;;
57615;SDS011;43816;52.054;-9.494;2023-07-16T00:33:08;4.93;;;4.63;;
57615;SDS011;43816;52.054;-9.494;2023-07-16T00:33:19;5.10;;;4.80;;
57615;SDS011;43816;52.054;-9.494;2023-07-16T00:33:29;5.03;;;4.73;;
57615;SDS011;43816;52.054;-9.494;2023-07-16T00:33:39;5.20;;;4.90;;
57615;SDS011;43816;52.054;-9.494;2023-07-16T00:33:49;5.10;;;4.80;;
57615;SDS011;43816;52.054;-9.494;2023-07-16T00:34:00;5.10;;;4.80;;
57615;SDS011;43816;52.054;-9.494;2023-07-16T00:34:10;5.10;;;4.80;;
57615;SDS011;43816;52.054;-9.494;2023-07-16T00:34:20;5.10;;;4.80;;
57615;SDS011;43816;52.054;-9.494;2023-07-16T00:34:31;5.10;;;4.80;;
57615;SDS011;43816;52.054;-9.494;2023-07-16T00:34:41;5.23;;;4.93;;
57615;SDS011;43816;52.054;-9.494;2023-07-16T00:34:51;5.30;;;5.00;;
57615;SDS011;43816;52.054;-9.494;2023-07-16T00:35:01;5.33;;;5.03;;
57615;SDS011;43816;52.054;-9.494;2023-07-16T00:35:12;5.20;;;4.90;;
57615;SDS011;43816;52.054;-9.494;2023-07-16T00:35:22;5.10;;;4.80;;
57615;SDS011;43816;52.054;-9.494;2023-07-16T00:35:32;4.97;;;4.67;;
57615;SDS011;43816;52.054;-9.494;2023-07-16T00:35:47;4.90;;;4.60;;
57615;SDS011;43816;52.054;-9.494;2023-07-16T00:35:58;4.75;;;4.55;;
57615;SDS011;43816;52.054;-9.494;2023-07-16T00:36:08;4.90;;;4.70;;
57615;SDS011;43816;52.054;-9.494;2023-07-16T00:36:18;5.00;;;4.80;;
57615;SDS011;43816;52.054;-9.494;2023-07-16T00:36:29;5.43;;;5.13;;
57615;SDS011;43816;52.054;-9.494;2023-07-16T00:36:39;5.25;;;4.95;;
57615;SDS011;43816;52.054;-9.494;2023-07-16T00:36:50;5.10;;;4.80;;
57615;SDS011;43816;52.054;-9.494;2023-07-16T00:37:00;5.10;;;4.80;;
57615;SDS011;43816;52.054;-9.494;2023-07-16T00:37:10;5.23;;;4.93;;
57615;SDS011;43816;52.054;-9.494;2023-07-16T00:37:21;5.45;;;5.05;;
57615;SDS011;43816;52.054;-9.494;2023-07-16T00:37:31;5.30;;;4.90;;
57615;SDS011;43816;52.054;-9.494;2023-07-16T00:37:42;5.38;;;4.97;;
57615;SDS011;43816;52.054;-9.494;2023-07-16T00:37:53;5.07;;;4.78;;
57615;SDS011;43816;52.054;-9.494;2023-07-16T00:38:03;4.97;;;4.67;;
57615;SDS011;43816;52.054;-9.494;2023-07-16T00:38:13;5.00;;;4.70;;
57615;SDS011;43816;52.054;-9.494;2023-07-16T00:38:23;5.10;;;4.80;;
57615;SDS011;43816;52.054;-9.494;2023-07-16T00:38:34;5.30;;;5.00;;
57615;SDS011;43816;52.054;-9.494;2023-07-16T00:38:44;5.20;;;4.90;;
57615;SDS011;43816;52.054;-9.494;2023-07-16T00:38:54;5.30;;;5.00;;
57615;SDS011;43816;52.054;-9.494;2023-07-16T00:39:05;5.27;;;4.97;;
57615;SDS011;43816;52.054;-9.494;2023-07-16T00:39:15;5.27;;;4.97;;
57615;SDS011;43816;52.054;-9.494;2023-07-16T00:39:25;5.20;;;4.90;;
57615;SDS011;43816;52.054;-9.494;2023-07-16T00:39:36;5.33;;;5.03;;
57615;SDS011;43816;52.054;-9.494;2023-07-16T00:39:46;5.23;;;4.93;;
57615;SDS011;43816;52.054;-9.494;2023-07-16T00:39:56;5.33;;;5.03;;
57615;SDS011;43816;52.054;-9.494;2023-07-16T00:40:07;5.15;;;4.90;;
57615;SDS011;43816;52.054;-9.494;2023-07-16T00:40:17;5.38;;;5.07;;
57615;SDS011;43816;52.054;-9.494;2023-07-16T00:40:28;5.40;;;5.10;;
57615;SDS011;43816;52.054;-9.494;2023-07-16T00:40:38;5.20;;;4.88;;
57615;SDS011;43816;52.054;-9.494;2023-07-16T00:40:49;5.03;;;4.73;;
57615;SDS011;43816;52.054;-9.494;2023-07-16T00:40:59;4.70;;;4.50;;
57615;SDS011;43816;52.054;-9.494;2023-07-16T00:41:10;5.03;;;4.80;;
57615;SDS011;43816;52.054;-9.494;2023-07-16T00:41:20;5.25;;;4.95;;
57615;SDS011;43816;52.054;-9.494;2023-07-16T00:41:30;5.37;;;5.07;;
57615;SDS011;43816;52.054;-9.494;2023-07-16T00:41:41;5.40;;;5.10;;
57615;SDS011;43816;52.054;-9.494;2023-07-16T00:41:51;5.53;;;5.13;;
57615;SDS011;43816;52.054;-9.494;2023-07-16T00:42:01;5.57;;;5.20;;
57615;SDS011;43816;52.054;-9.494;2023-07-16T00:42:12;5.43;;;5.13;;
57615;SDS011;43816;52.054;-9.494;2023-07-16T00:42:22;5.53;;;5.22;;
57615;SDS011;43816;52.054;-9.494;2023-07-16T00:42:32;5.40;;;5.10;;
57615;SDS011;43816;52.054;-9.494;2023-07-16T00:42:43;5.30;;;5.00;;
57615;SDS011;43816;52.054;-9.494;2023-07-16T00:42:53;5.07;;;4.78;;
57615;SDS011;43816;52.054;-9.494;2023-07-16T00:43:03;4.93;;;4.63;;
57615;SDS011;43816;52.054;-9.494;2023-07-16T00:43:13;5.10;;;4.80;;
57615;SDS011;43816;52.054;-9.494;2023-07-16T00:43:24;5.10;;;4.80;;
57615;SDS011;43816;52.054;-9.494;2023-07-16T00:43:34;5.40;;;5.10;;
57615;SDS011;43816;52.054;-9.494;2023-07-16T00:43:44;5.40;;;5.10;;
57615;SDS011;43816;52.054;-9.494;2023-07-16T00:43:55;5.50;;;5.20;;
57615;SDS011;43816;52.054;-9.494;2023-07-16T00:44:05;5.33;;;5.03;;
57615;SDS011;43816;52.054;-9.494;2023-07-16T00:44:15;5.27;;;4.97;;
57615;SDS011;43816;52.054;-9.494;2023-07-16T00:44:26;5.32;;;5.03;;
57615;SDS011;43816;52.054;-9.494;2023-07-16T00:44:36;5.27;;;4.97;;
57615;SDS011;43816;52.054;-9.494;2023-07-16T00:44:46;5.30;;;5.00;;
57615;SDS011;43816;52.054;-9.494;2023-07-16T00:44:56;5.10;;;4.80;;
57615;SDS011;43816;52.054;-9.494;2023-07-16T00:45:08;5.20;;;4.90;;
57615;SDS011;43816;52.054;-9.494;2023-07-16T00:45:21;5.18;;;4.88;;
57615;SDS011;43816;52.054;-9.494;2023-07-16T00:45:32;5.32;;;5.03;;
57615;SDS011;43816;52.054;-9.494;2023-07-16T00:45:42;5.40;;;5.10;;
57615;SDS011;43816;52.054;-9.494;2023-07-16T00:45:55;5.20;;;4.90;;
57615;SDS011;43816;52.054;-9.494;2023-07-16T00:46:05;5.30;;;4.90;;
57615;SDS011;43816;52.054;-9.494;2023-07-16T00:46:16;5.30;;;4.90;;
57615;SDS011;43816;52.054;-9.494;2023-07-16T00:46:27;5.40;;;5.00;;
57615;SDS011;43816;52.054;-9.494;2023-07-16T00:46:38;5.32;;;5.03;;
57615;SDS011;43816;52.054;-9.494;2023-07-16T00:46:49;5.28;;;4.97;;
57615;SDS011;43816;52.054;-9.494;2023-07-16T00:47:00;5.10;;;4.80;;
57615;SDS011;43816;52.054;-9.494;2023-07-16T00:47:11;5.28;;;4.97;;
57615;SDS011;43816;52.054;-9.494;2023-07-16T00:47:22;5.45;;;5.15;;
57615;SDS011;43816;52.054;-9.494;2023-07-16T00:47:32;5.43;;;5.13;;
57615;SDS011;43816;52.054;-9.494;2023-07-16T00:47:43;5.50;;;5.20;;
57615;SDS011;43816;52.054;-9.494;2023-07-16T00:47:54;5.63;;;5.32;;
57615;SDS011;43816;52.054;-9.494;2023-07-16T00:48:04;5.50;;;5.20;;
57615;SDS011;43816;52.054;-9.494;2023-07-16T00:48:16;5.43;;;5.13;;
57615;SDS011;43816;52.054;-9.494;2023-07-16T00:48:27;5.30;;;5.03;;
57615;SDS011;43816;52.054;-9.494;2023-07-16T00:48:39;5.40;;;5.10;;
57615;SDS011;43816;52.054;-9.494;2023-07-16T00:48:51;5.40;;;5.10;;
57615;SDS011;43816;52.054;-9.494;2023-07-16T00:49:02;5.30;;;5.00;;
57615;SDS011;43816;52.054;-9.494;2023-07-16T00:49:12;5.10;;;4.80;;
57615;SDS011;43816;52.054;-9.494;2023-07-16T00:49:23;5.07;;;4.87;;
57615;SDS011;43816;52.054;-9.494;2023-07-16T00:49:34;5.13;;;4.93;;
57615;SDS011;43816;52.054;-9.494;2023-07-16T00:49:44;5.30;;;5.07;;
57615;SDS011;43816;52.054;-9.494;2023-07-16T00:49:55;5.60;;;5.30;;
57615;SDS011;43816;52.054;-9.494;2023-07-16T00:50:06;5.63;;;5.32;;
57615;SDS011;43816;52.054;-9.494;2023-07-16T00:50:17;5.40;;;5.10;;
57615;SDS011;43816;52.054;-9.494;2023-07-16T00:50:28;5.20;;;4.90;;
57615;SDS011;43816;52.054;-9.494;2023-07-16T00:50:39;5.05;;;4.75;;
57615;SDS011;43816;52.054;-9.494;2023-07-16T00:50:51;5.13;;;4.82;;
57615;SDS011;43816;52.054;-9.494;2023-07-16T00:51:02;5.45;;;5.15;;
57615;SDS011;43816;52.054;-9.494;2023-07-16T00:51:13;5.90;;;5.60;;
57615;SDS011;43816;52.054;-9.494;2023-07-16T00:51:24;5.88;;;5.57;;
57615;SDS011;43816;52.054;-9.494;2023-07-16T00:51:36;5.35;;;5.05;;
57615;SDS011;43816;52.054;-9.494;2023-07-16T00:51:46;4.93;;;4.72;;
57615;SDS011;43816;52.054;-9.494;2023-07-16T00:51:57;5.23;;;4.93;;
57615;SDS011;43816;52.054;-9.494;2023-07-16T00:52:09;5.38;;;5.07;;
57615;SDS011;43816;52.054;-9.494;2023-07-16T00:52:24;5.30;;;5.00;;
57615;SDS011;43816;52.054;-9.494;2023-07-16T00:52:34;5.23;;;4.93;;
57615;SDS011;43816;52.054;-9.494;2023-07-16T00:52:45;5.10;;;4.80;;
57615;SDS011;43816;52.054;-9.494;2023-07-16T00:52:55;4.97;;;4.72;;
57615;SDS011;43816;52.054;-9.494;2023-07-16T00:53:06;5.07;;;4.87;;
57615;SDS011;43816;52.054;-9.494;2023-07-16T00:53:17;5.10;;;4.90;;
57615;SDS011;43816;52.054;-9.494;2023-07-16T00:53:28;5.15;;;4.85;;
57615;SDS011;43816;52.054;-9.494;2023-07-16T00:53:40;5.30;;;5.00;;
57615;SDS011;43816;52.054;-9.494;2023-07-16T00:53:51;5.20;;;4.90;;
57615;SDS011;43816;52.054;-9.494;2023-07-16T00:54:02;5.10;;;4.80;;
57615;SDS011;43816;52.054;-9.494;2023-07-16T00:54:12;5.27;;;4.97;;
57615;SDS011;43816;52.054;-9.494;2023-07-16T00:54:23;5.70;;;5.40;;
57615;SDS011;43816;52.054;-9.494;2023-07-16T00:54:33;5.77;;;5.47;;
57615;SDS011;43816;52.054;-9.494;2023-07-16T00:54:44;5.53;;;5.22;;
57615;SDS011;43816;52.054;-9.494;2023-07-16T00:54:55;5.20;;;4.90;;
57615;SDS011;43816;52.054;-9.494;2023-07-16T00:55:05;5.17;;;4.87;;
57615;SDS011;43816;52.054;-9.494;2023-07-16T00:55:16;5.15;;;4.85;;
57615;SDS011;43816;52.054;-9.494;2023-07-16T00:55:28;4.95;;;4.75;;
57615;SDS011;43816;52.054;-9.494;2023-07-16T00:55:39;5.15;;;4.88;;
57615;SDS011;43816;52.054;-9.494;2023-07-16T00:55:50;5.27;;;4.97;;
57615;SDS011;43816;52.054;-9.494;2023-07-16T00:56:01;5.20;;;4.90;;
57615;SDS011;43816;52.054;-9.494;2023-07-16T00:56:11;5.15;;;4.85;;
57615;SDS011;43816;52.054;-9.494;2023-07-16T00:56:25;5.10;;;4.80;;
57615;SDS011;43816;52.054;-9.494;2023-07-16T00:56:36;5.22;;;4.93;;
57615;SDS011;43816;52.054;-9.494;2023-07-16T00:56:47;5.13;;;4.90;;
57615;SDS011;43816;52.054;-9.494;2023-07-16T00:56:58;5.07;;;4.88;;
57615;SDS011;43816;52.054;-9.494;2023-07-16T00:57:09;5.10;;;4.83;;
57615;SDS011;43816;52.054;-9.494;2023-07-16T00:57:19;5.25;;;4.95;;
57615;SDS011;43816;52.054;-9.494;2023-07-16T00:57:29;5.13;;;4.83;;
57615;SDS011;43816;52.054;-9.494;2023-07-16T00:57:41;5.10;;;4.80;;
57615;SDS011;43816;52.054;-9.494;2023-07-16T00:57:52;5.20;;;4.90;;
57615;SDS011;43816;52.054;-9.494;2023-07-16T00:58:04;5.26;;;4.96;;
57615;SDS011;43816;52.054;-9.494;2023-07-16T00:58:15;5.05;;;4.78;;
57615;SDS011;43816;52.054;-9.494;2023-07-16T00:58:26;4.80;;;4.60;;
57615;SDS011;43816;52.054;-9.494;2023-07-16T00:58:36;4.80;;;4.50;;
57615;SDS011;43816;52.054;-9.494;2023-07-16T00:58:46;4.82;;;4.53;;
57615;SDS011;43816;52.054;-9.494;2023-07-16T00:58:56;4.77;;;4.47;;
57615;SDS011;43816;52.054;-9.494;2023-07-16T00:59:07;4.73;;;4.53;;
57615;SDS011;43816;52.054;-9.494;2023-07-16T00:59:17;4.93;;;4.63;;
57615;SDS011;43816;52.054;-9.494;2023-07-16T00:59:27;5.17;;;4.87;;
57615;SDS011;43816;52.054;-9.494;2023-07-16T00:59:38;5.20;;;4.90;;
57615;SDS011;43816;52.054;-9.494;2023-07-16T00:59:48;5.32;;;5.00;;
57615;SDS011;43816;52.054;-9.494;2023-07-16T00:59:58;5.23;;;4.90;;
57615;SDS011;43816;52.054;-9.494;2023-07-16T01:00:09;4.93;;;4.63;;
57615;SDS011;43816;52.054;-9.494;2023-07-16T01:00:19;4.85;;;4.60;;
57615;SDS011;43816;52.054;-9.494;2023-07-16T01:00:30;4.93;;;4.68;;
57615;SDS011;43816;52.054;-9.494;2023-07-16T01:00:41;5.00;;;4.80;;
57615;SDS011;43816;52.054;-9.494;2023-07-16T01:00:52;4.85;;;4.65;;
57615;SDS011;43816;52.054;-9.494;2023-07-16T01:01:02;5.03;;;4.73;;
57615;SDS011;43816;52.054;-9.494;2023-07-16T01:01:12;5.20;;;4.90;;
57615;SDS011;43816;52.054;-9.494;2023-07-16T01:01:23;5.10;;;4.90;;
57615;SDS011;43816;52.054;-9.494;2023-07-16T01:01:33;5.03;;;4.80;;
57615;SDS011;43816;52.054;-9.494;2023-07-16T01:01:43;5.17;;;4.90;;
57615;SDS011;43816;52.054;-9.494;2023-07-16T01:01:53;5.03;;;4.82;;
57615;SDS011;43816;52.054;-9.494;2023-07-16T01:02:04;5.00;;;4.80;;
57615;SDS011;43816;52.054;-9.494;2023-07-16T01:02:15;4.95;;;4.75;;
57615;SDS011;43816;52.054;-9.494;2023-07-16T01:02:25;5.10;;;4.80;;